Anderson, South Dakota
Current Conditions -  °F | °C
As of 2:53 PM on Thursday 27 Nov 2014 (Local Time) from KHEI Reporting Station
Overcast Overcast  
Wind Chill: 11°   Ceiling: 9000
Heat Index: 23°   Visibility: 10mi
Dew Point: 18°   Wind: 13mph
Humidity: 81%   Direction: 170°S
Pressure: 29.88"   Gusts: NA
Location:  45.2919°N, 102.298°W
Report Text: KHEI 272153Z AUTO 17011KT 10SM OVC090 M05/M08 A2988 RMK AO2 SLP162 T10501078
Loading
Personal Weather Stations






























Interactive Weather Map New forecast layout! Learn more

10-Day Weather Forecast

Advertisements
Track Severe Weather on mobile